createdAt,value
2023-02-26T00:01:37.489Z,1.82
2023-02-26T00:04:05.101Z,2.05
2023-02-26T00:06:32.766Z,2.28
2023-02-26T00:08:59.537Z,2.14
2023-02-26T00:11:26.245Z,2.07
2023-02-26T00:13:52.870Z,2.05
2023-02-26T00:16:22.833Z,1.95
2023-02-26T00:18:49.473Z,1.87
2023-02-26T00:21:17.155Z,1.74
2023-02-26T00:23:43.830Z,1.50
2023-02-26T00:26:10.457Z,1.38
2023-02-26T00:28:37.539Z,1.54
2023-02-26T00:31:04.350Z,1.94
2023-02-26T00:33:31.078Z,1.82
2023-02-26T00:36:03.565Z,1.78
2023-02-26T00:38:33.116Z,1.74
2023-02-26T00:40:59.632Z,1.67
2023-02-26T00:43:26.725Z,1.75
2023-02-26T00:45:53.411Z,1.85
2023-02-26T00:48:43.203Z,1.98
2023-02-26T00:51:31.362Z,2.53
2023-02-26T00:54:09.783Z,2.49
2023-02-26T00:56:36.306Z,2.18
2023-02-26T00:59:02.805Z,2.19
2023-02-26T01:01:29.949Z,2.21
2023-02-26T01:03:56.700Z,2.22
2023-02-26T01:06:27.292Z,2.11
2023-02-26T01:09:14.108Z,2.32
2023-02-26T01:11:40.669Z,2.01
2023-02-26T01:14:07.660Z,1.73
2023-02-26T01:16:37.378Z,2.48
2023-02-26T01:19:24.092Z,2.20
2023-02-26T01:21:54.122Z,2.01
2023-02-26T01:24:23.406Z,2.01
2023-02-26T01:26:50.758Z,1.95
2023-02-26T01:29:17.413Z,2.01
2023-02-26T01:31:54.593Z,1.79
2023-02-26T01:34:46.553Z,2.33
2023-02-26T01:37:31.704Z,2.09
2023-02-26T01:40:04.181Z,1.88
2023-02-26T01:42:32.191Z,2.13
2023-02-26T01:45:04.336Z,2.12
2023-02-26T01:47:39.422Z,2.47
2023-02-26T01:50:10.842Z,2.48
2023-02-26T01:53:03.727Z,2.66
2023-02-26T01:55:30.419Z,2.47
2023-02-26T01:57:59.120Z,2.48
2023-02-26T02:00:25.750Z,2.34
2023-02-26T02:02:53.365Z,2.52
2023-02-26T02:05:25.849Z,2.26
2023-02-26T02:07:52.352Z,1.91
2023-02-26T02:10:19.049Z,1.82
2023-02-26T02:12:51.169Z,1.91
2023-02-26T02:15:25.714Z,1.66
2023-02-26T02:18:04.891Z,1.58
2023-02-26T02:20:46.650Z,1.68
2023-02-26T02:23:19.725Z,1.90
2023-02-26T02:25:58.363Z,2.08
2023-02-26T02:28:30.925Z,2.04
2023-02-26T02:31:06.792Z,1.98
2023-02-26T02:33:44.065Z,1.92
2023-02-26T02:36:15.201Z,1.97
2023-02-26T02:38:59.717Z,2.10
2023-02-26T02:41:33.981Z,2.23
2023-02-26T02:44:02.428Z,2.24
2023-02-26T02:46:31.685Z,2.23
2023-02-26T02:48:58.204Z,2.25
2023-02-26T02:51:26.662Z,2.10
2023-02-26T02:53:55.785Z,2.12
2023-02-26T02:56:27.707Z,2.27
2023-02-26T02:59:06.736Z,2.32
2023-02-26T03:01:35.316Z,2.24
2023-02-26T03:04:08.400Z,2.15
2023-02-26T03:06:36.914Z,2.10
2023-02-26T03:09:04.808Z,2.14
2023-02-26T03:11:31.733Z,1.83
2023-02-26T03:13:59.217Z,2.22
2023-02-26T03:16:34.095Z,1.75
2023-02-26T03:19:09.937Z,1.71
2023-02-26T03:21:43.616Z,1.72
2023-02-26T03:24:24.181Z,1.58
2023-02-26T03:27:08.600Z,1.53
2023-02-26T03:29:46.794Z,1.77
2023-02-26T03:32:22.643Z,1.54
2023-02-26T03:34:51.957Z,1.48
2023-02-26T03:37:32.336Z,1.69
2023-02-26T03:40:02.178Z,1.86
2023-02-26T03:42:32.791Z,1.76
2023-02-26T03:45:05.678Z,1.71
2023-02-26T03:47:33.653Z,1.83
2023-02-26T03:50:05.522Z,2.07
2023-02-26T03:52:41.771Z,1.82
2023-02-26T03:55:19.599Z,1.78
2023-02-26T03:58:04.762Z,1.60
2023-02-26T04:00:32.823Z,1.70
2023-02-26T04:03:03.446Z,1.80
2023-02-26T04:05:33.365Z,1.69
2023-02-26T04:07:59.831Z,1.68
2023-02-26T04:10:47.288Z,1.72
2023-02-26T04:13:13.884Z,1.61
2023-02-26T04:15:40.633Z,1.66
2023-02-26T04:18:07.402Z,1.66
2023-02-26T04:20:34.634Z,1.45
2023-02-26T04:23:01.087Z,1.43
2023-02-26T04:25:27.628Z,1.62
2023-02-26T04:27:54.958Z,1.77
2023-02-26T04:30:21.454Z,1.71
2023-02-26T04:32:48.148Z,1.90
2023-02-26T04:35:15.551Z,1.81
2023-02-26T04:37:42.330Z,1.58
2023-02-26T04:40:09.185Z,1.73
2023-02-26T04:42:35.739Z,1.78
2023-02-26T04:45:02.177Z,1.77
2023-02-26T04:47:29.345Z,1.58
2023-02-26T04:49:56.301Z,1.46
2023-02-26T04:52:22.827Z,1.68
2023-02-26T04:54:49.630Z,1.83
2023-02-26T04:57:16.388Z,1.76
2023-02-26T04:59:45.609Z,1.76
2023-02-26T05:02:12.884Z,1.85
2023-02-26T05:04:43.688Z,1.80
2023-02-26T05:07:11.128Z,1.71
2023-02-26T05:09:37.622Z,1.83
2023-02-26T05:12:04.135Z,1.84
2023-02-26T05:14:30.890Z,1.68
2023-02-26T05:16:58.123Z,1.88
2023-02-26T05:19:24.689Z,1.97
2023-02-26T05:21:51.189Z,1.93
2023-02-26T05:24:17.844Z,1.72
2023-02-26T05:26:44.481Z,1.84
2023-02-26T05:29:10.993Z,2.03
2023-02-26T05:31:37.488Z,2.04
2023-02-26T05:34:04.210Z,1.97
2023-02-26T05:36:30.663Z,2.01
2023-02-26T05:38:57.142Z,1.98
2023-02-26T05:41:23.662Z,1.98
2023-02-26T05:43:50.452Z,1.97
2023-02-26T05:46:17.010Z,2.01
2023-02-26T05:48:45.693Z,1.95
2023-02-26T05:51:12.375Z,1.84
2023-02-26T05:53:38.924Z,2.08
2023-02-26T05:56:05.995Z,2.06
2023-02-26T05:58:33.951Z,1.91
2023-02-26T06:01:00.747Z,1.95
2023-02-26T06:03:27.239Z,1.61
2023-02-26T06:05:53.754Z,1.66
2023-02-26T06:08:20.260Z,1.81
2023-02-26T06:10:46.763Z,1.41
2023-02-26T06:13:13.262Z,1.31
2023-02-26T06:15:39.692Z,1.23
2023-02-26T06:18:06.124Z,1.39
2023-02-26T06:20:32.609Z,1.61
2023-02-26T06:22:59.088Z,1.56
2023-02-26T06:25:25.632Z,1.70
2023-02-26T06:27:52.157Z,1.77
2023-02-26T06:30:19.190Z,1.87
2023-02-26T06:32:45.730Z,1.97
2023-02-26T06:35:12.325Z,1.67
2023-02-26T06:37:38.801Z,1.80
2023-02-26T06:40:05.863Z,1.88
2023-02-26T06:42:32.331Z,2.08
2023-02-26T06:44:58.864Z,2.36
2023-02-26T06:47:25.366Z,2.54
2023-02-26T06:49:51.854Z,2.79
2023-02-26T06:52:18.280Z,2.32
2023-02-26T06:54:44.890Z,2.70
2023-02-26T06:57:11.381Z,2.45
2023-02-26T06:59:37.944Z,2.11
2023-02-26T07:02:04.499Z,2.35
2023-02-26T07:04:31.013Z,2.90
2023-02-26T07:06:57.493Z,2.86
2023-02-26T07:09:23.945Z,2.99
2023-02-26T07:11:50.875Z,3.20
2023-02-26T07:14:17.503Z,3.10
2023-02-26T07:16:44.004Z,3.37
2023-02-26T07:19:10.459Z,3.18
2023-02-26T07:21:36.938Z,3.17
2023-02-26T07:24:03.485Z,3.32
2023-02-26T07:26:29.952Z,3.41
2023-02-26T07:28:56.416Z,3.45
2023-02-26T07:31:22.961Z,3.30
2023-02-26T07:33:49.510Z,3.90
2023-02-26T07:36:15.983Z,4.10
2023-02-26T07:38:42.432Z,4.40
2023-02-26T07:41:09.062Z,4.37
2023-02-26T07:43:35.608Z,4.09
2023-02-26T07:46:02.467Z,4.53
2023-02-26T07:48:29.003Z,4.29
2023-02-26T07:50:55.457Z,4.89
2023-02-26T07:53:21.896Z,5.44
2023-02-26T07:55:48.500Z,5.44
2023-02-26T07:58:14.925Z,6.04
2023-02-26T08:00:41.371Z,6.06
2023-02-26T08:03:07.826Z,6.74
2023-02-26T08:05:34.869Z,7.36
2023-02-26T08:08:02.060Z,6.89
2023-02-26T08:10:28.903Z,6.27
2023-02-26T08:12:55.593Z,5.72
2023-02-26T08:15:22.074Z,4.22
2023-02-26T08:17:48.536Z,5.19
2023-02-26T08:20:16.213Z,3.70
2023-02-26T08:22:42.775Z,3.40
2023-02-26T08:25:09.331Z,3.63
2023-02-26T08:27:35.805Z,3.49
2023-02-26T08:30:03.058Z,3.55
2023-02-26T08:32:29.675Z,4.39
2023-02-26T08:34:56.195Z,4.60
2023-02-26T08:37:25.531Z,4.20
2023-02-26T08:39:52.824Z,3.93
2023-02-26T08:42:20.477Z,4.40
2023-02-26T08:44:47.310Z,4.73
2023-02-26T08:47:19.129Z,4.99
2023-02-26T08:49:51.069Z,5.00
2023-02-26T08:52:17.615Z,4.75
2023-02-26T08:54:44.155Z,4.65
2023-02-26T08:57:10.648Z,4.22
2023-02-26T08:59:37.076Z,4.77
2023-02-26T09:02:03.620Z,5.29
2023-02-26T09:04:31.239Z,6.26
2023-02-26T09:06:57.877Z,6.73
2023-02-26T09:09:24.385Z,6.35
2023-02-26T09:11:51.010Z,5.91
2023-02-26T09:14:17.802Z,5.12
2023-02-26T09:16:44.374Z,5.92
2023-02-26T09:19:11.200Z,6.19
2023-02-26T09:21:37.661Z,5.84
2023-02-26T09:24:04.193Z,5.41
2023-02-26T09:26:30.731Z,5.82
2023-02-26T09:28:57.247Z,6.05
2023-02-26T09:31:23.828Z,6.01
2023-02-26T09:33:50.333Z,5.73
2023-02-26T09:36:16.781Z,5.18
2023-02-26T09:38:44.273Z,5.82
2023-02-26T09:41:17.328Z,5.94
2023-02-26T09:44:02.687Z,6.12
2023-02-26T09:46:44.639Z,6.46
2023-02-26T09:49:20.183Z,6.97
2023-02-26T09:51:50.267Z,6.32
2023-02-26T09:54:22.560Z,6.38
2023-02-26T09:56:49.941Z,6.40
2023-02-26T09:59:16.411Z,5.94
2023-02-26T10:01:56.750Z,6.72
2023-02-26T10:04:41.761Z,6.43
2023-02-26T10:07:20.220Z,6.57
2023-02-26T10:09:49.463Z,6.25
2023-02-26T10:12:20.659Z,6.43
2023-02-26T10:14:47.098Z,6.83
2023-02-26T10:17:16.630Z,5.81
2023-02-26T10:19:44.590Z,6.44
2023-02-26T10:22:11.000Z,6.39
2023-02-26T10:24:37.400Z,6.55
2023-02-26T10:27:09.477Z,6.82
2023-02-26T10:29:56.162Z,7.05
2023-02-26T10:32:31.840Z,6.99
2023-02-26T10:35:00.455Z,6.53
2023-02-26T10:37:36.111Z,6.90
2023-02-26T10:40:38.173Z,6.44
2023-02-26T10:43:10.735Z,6.88
2023-02-26T10:45:43.860Z,6.90
2023-02-26T10:48:29.392Z,6.85
2023-02-26T10:50:57.533Z,6.21
2023-02-26T10:53:26.056Z,6.56
2023-02-26T10:55:56.188Z,6.56
2023-02-26T10:58:24.851Z,6.33
2023-02-26T11:00:54.250Z,6.61
2023-02-26T11:03:22.224Z,6.17
2023-02-26T11:05:48.896Z,6.40
2023-02-26T11:08:17.973Z,5.98
2023-02-26T11:10:50.606Z,6.96
2023-02-26T11:13:17.209Z,6.75
2023-02-26T11:15:46.242Z,6.75
2023-02-26T11:18:18.350Z,6.59
2023-02-26T11:20:45.696Z,6.67
2023-02-26T11:23:13.464Z,6.49
2023-02-26T11:25:40.380Z,6.76
2023-02-26T11:28:08.339Z,6.33
2023-02-26T11:30:38.523Z,6.42
2023-02-26T11:33:14.458Z,6.58
2023-02-26T11:35:41.076Z,6.26
2023-02-26T11:38:17.141Z,6.59
2023-02-26T11:40:46.233Z,6.34
2023-02-26T11:43:15.274Z,6.04
2023-02-26T11:45:44.053Z,6.01
2023-02-26T11:48:13.692Z,6.31
2023-02-26T11:50:43.512Z,6.48
2023-02-26T11:53:22.844Z,6.56
2023-02-26T11:55:52.452Z,6.53
2023-02-26T11:58:20.502Z,6.56
2023-02-26T12:00:47.407Z,6.62
2023-02-26T12:03:20.180Z,6.52
2023-02-26T12:05:46.844Z,6.61
2023-02-26T12:08:19.403Z,6.33
2023-02-26T12:11:06.143Z,6.40
2023-02-26T12:13:32.584Z,6.10
2023-02-26T12:16:04.776Z,5.97
2023-02-26T12:18:34.273Z,6.37
2023-02-26T12:21:16.483Z,6.14
2023-02-26T12:23:42.903Z,5.47
2023-02-26T12:26:09.305Z,5.68
2023-02-26T12:28:54.126Z,5.63
2023-02-26T12:31:27.274Z,5.49
2023-02-26T12:34:03.246Z,5.64
2023-02-26T12:36:48.441Z,5.82
2023-02-26T12:39:28.338Z,5.89
2023-02-26T12:42:18.048Z,5.74
2023-02-26T12:45:03.240Z,5.69
2023-02-26T12:47:48.626Z,5.87
2023-02-26T12:50:34.108Z,6.34
2023-02-26T12:53:03.773Z,6.35
2023-02-26T12:55:33.274Z,6.14
2023-02-26T12:58:08.736Z,5.33
2023-02-26T13:00:46.920Z,5.14
2023-02-26T13:03:16.140Z,5.15
2023-02-26T13:05:59.017Z,5.42
2023-02-26T13:08:39.800Z,5.28
2023-02-26T13:11:18.549Z,4.93
2023-02-26T13:14:03.873Z,5.20
2023-02-26T13:16:46.000Z,5.30
2023-02-26T13:19:24.010Z,5.38
2023-02-26T13:21:53.754Z,5.70
2023-02-26T13:24:26.057Z,5.64
2023-02-26T13:26:53.895Z,5.61
2023-02-26T13:29:24.329Z,5.59
2023-02-26T13:31:53.376Z,5.58
2023-02-26T13:34:25.852Z,5.85
2023-02-26T13:36:52.868Z,5.79
2023-02-26T13:39:29.071Z,5.27
2023-02-26T13:42:04.761Z,5.00
2023-02-26T13:44:34.410Z,5.24
2023-02-26T13:47:27.685Z,5.05
2023-02-26T13:49:57.156Z,4.89
2023-02-26T13:52:32.895Z,4.99
2023-02-26T13:54:59.601Z,5.46
2023-02-26T13:57:34.180Z,5.21
2023-02-26T14:00:11.355Z,4.60
2023-02-26T14:02:44.689Z,4.88
2023-02-26T14:05:29.082Z,4.82
2023-02-26T14:07:56.479Z,4.71
2023-02-26T14:10:24.877Z,4.79
2023-02-26T14:13:22.387Z,5.10
2023-02-26T14:15:48.793Z,4.92
2023-02-26T14:18:30.639Z,5.18
2023-02-26T14:21:15.847Z,5.37
2023-02-26T14:23:46.989Z,5.07
2023-02-26T14:26:16.790Z,5.10
2023-02-26T14:28:55.950Z,5.35
2023-02-26T14:31:26.566Z,5.50
2023-02-26T14:33:56.366Z,5.34
2023-02-26T14:36:46.590Z,5.37
2023-02-26T14:39:20.133Z,5.69
2023-02-26T14:41:46.656Z,5.17
2023-02-26T14:44:20.912Z,5.45
2023-02-26T14:46:48.565Z,4.98
2023-02-26T14:49:19.966Z,5.30
2023-02-26T14:51:54.728Z,5.12
2023-02-26T14:54:30.559Z,4.95
2023-02-26T14:57:13.532Z,4.94
2023-02-26T14:59:51.542Z,4.96
2023-02-26T15:02:32.215Z,4.79
2023-02-26T15:05:31.302Z,5.09
2023-02-26T15:07:57.810Z,4.93
2023-02-26T15:10:27.052Z,4.84
2023-02-26T15:12:53.571Z,4.79
2023-02-26T15:15:28.356Z,5.10
2023-02-26T15:17:54.916Z,4.87
2023-02-26T15:20:21.355Z,4.76
2023-02-26T15:23:13.914Z,5.00
2023-02-26T15:25:44.828Z,5.28
2023-02-26T15:28:15.347Z,4.95
2023-02-26T15:30:43.450Z,4.89
2023-02-26T15:33:12.464Z,5.36
2023-02-26T15:35:39.025Z,4.80
2023-02-26T15:38:05.573Z,4.73
2023-02-26T15:40:34.648Z,4.75
2023-02-26T15:43:02.008Z,4.59
2023-02-26T15:45:33.484Z,4.59
2023-02-26T15:48:02.795Z,4.91
2023-02-26T15:50:31.102Z,4.99
2023-02-26T15:52:59.872Z,4.59
2023-02-26T15:55:26.676Z,5.00
2023-02-26T15:57:54.703Z,4.83
2023-02-26T16:00:25.677Z,4.41
2023-02-26T16:02:59.189Z,4.66
2023-02-26T16:05:26.341Z,4.50
2023-02-26T16:07:52.882Z,4.29
2023-02-26T16:10:32.788Z,4.31
2023-02-26T16:13:00.444Z,4.38
2023-02-26T16:15:32.777Z,4.63
2023-02-26T16:18:00.372Z,4.49
2023-02-26T16:20:27.534Z,4.42
2023-02-26T16:22:56.969Z,4.31
2023-02-26T16:25:43.696Z,4.57
2023-02-26T16:28:19.203Z,4.17
2023-02-26T16:30:48.041Z,4.34
2023-02-26T16:33:15.672Z,4.17
2023-02-26T16:35:45.020Z,4.43
2023-02-26T16:38:22.417Z,4.36
2023-02-26T16:40:56.838Z,4.20
2023-02-26T16:43:23.352Z,4.21
2023-02-26T16:45:51.121Z,4.04
2023-02-26T16:48:26.058Z,3.94
2023-02-26T16:51:13.988Z,3.92
2023-02-26T16:53:44.005Z,3.98
2023-02-26T16:56:16.910Z,3.87
2023-02-26T16:58:50.001Z,3.93
2023-02-26T17:01:17.772Z,3.67
2023-02-26T17:03:50.659Z,3.78
2023-02-26T17:06:19.550Z,3.65
2023-02-26T17:08:50.324Z,3.75
2023-02-26T17:11:30.662Z,3.70
2023-02-26T17:14:02.593Z,3.58
2023-02-26T17:16:29.527Z,3.70
2023-02-26T17:18:56.216Z,3.72
2023-02-26T17:21:22.707Z,3.72
2023-02-26T17:23:49.264Z,3.72
2023-02-26T17:26:15.719Z,3.57
2023-02-26T17:28:42.816Z,3.76
2023-02-26T17:31:10.764Z,3.70
2023-02-26T17:33:38.153Z,3.55
2023-02-26T17:36:04.958Z,3.71
2023-02-26T17:38:33.416Z,3.71
2023-02-26T17:41:00.720Z,3.76
2023-02-26T17:43:28.043Z,3.73
2023-02-26T17:45:54.577Z,3.45
2023-02-26T17:48:21.786Z,3.66
2023-02-26T17:50:48.303Z,3.45
2023-02-26T17:53:16.180Z,3.46
2023-02-26T17:55:43.059Z,3.60
2023-02-26T17:58:28.607Z,3.48
2023-02-26T18:00:55.317Z,3.31
2023-02-26T18:03:21.989Z,3.31
2023-02-26T18:05:49.123Z,3.41
2023-02-26T18:08:19.074Z,3.34
2023-02-26T18:10:45.558Z,3.43
2023-02-26T18:13:12.032Z,3.22
2023-02-26T18:15:38.697Z,3.14
2023-02-26T18:18:06.343Z,3.30
2023-02-26T18:20:32.800Z,3.08
2023-02-26T18:22:59.263Z,3.15
2023-02-26T18:25:26.910Z,3.12
2023-02-26T18:27:59.868Z,3.09
2023-02-26T18:30:28.579Z,2.99
2023-02-26T18:32:55.912Z,2.93
2023-02-26T18:35:23.189Z,2.91
2023-02-26T18:37:51.220Z,3.05
2023-02-26T18:40:18.800Z,2.83
2023-02-26T18:42:45.206Z,3.06
2023-02-26T18:45:12.120Z,2.97
2023-02-26T18:47:39.080Z,2.97
2023-02-26T18:50:06.331Z,3.09
2023-02-26T18:52:32.985Z,3.00
2023-02-26T18:55:00.679Z,2.98
2023-02-26T18:57:27.149Z,2.80
2023-02-26T18:59:53.568Z,2.82
2023-02-26T19:02:20.034Z,2.97
2023-02-26T19:04:47.347Z,2.70
2023-02-26T19:07:14.212Z,2.79
2023-02-26T19:09:40.775Z,2.69
2023-02-26T19:12:09.039Z,2.69
2023-02-26T19:14:36.746Z,2.78
2023-02-26T19:17:03.219Z,2.72
2023-02-26T19:19:29.908Z,2.83
2023-02-26T19:21:57.767Z,2.53
2023-02-26T19:24:24.542Z,2.94
2023-02-26T19:26:51.119Z,2.62
2023-02-26T19:29:19.250Z,2.65
2023-02-26T19:31:46.683Z,2.60
2023-02-26T19:34:14.128Z,2.76
2023-02-26T19:36:43.436Z,2.79
2023-02-26T19:39:11.786Z,2.79
2023-02-26T19:41:38.269Z,2.46
2023-02-26T19:44:04.859Z,2.53
2023-02-26T19:46:31.384Z,2.39
2023-02-26T19:48:57.969Z,2.17
2023-02-26T19:51:24.679Z,1.97
2023-02-26T19:53:51.469Z,1.93
2023-02-26T19:56:18.025Z,1.97
2023-02-26T19:58:44.526Z,1.97
2023-02-26T20:01:11.060Z,1.93
2023-02-26T20:03:37.568Z,2.11
2023-02-26T20:06:04.146Z,2.29
2023-02-26T20:08:30.692Z,2.30
2023-02-26T20:10:57.967Z,2.18
2023-02-26T20:13:26.760Z,2.14
2023-02-26T20:15:53.687Z,2.23
2023-02-26T20:18:20.216Z,2.06
2023-02-26T20:20:46.690Z,2.23
2023-02-26T20:23:13.122Z,2.26
2023-02-26T20:25:39.676Z,2.20
2023-02-26T20:28:06.169Z,2.08
2023-02-26T20:30:32.860Z,1.84
2023-02-26T20:32:59.386Z,1.95
2023-02-26T20:35:25.902Z,1.83
2023-02-26T20:37:52.408Z,2.01
2023-02-26T20:40:18.922Z,2.01
2023-02-26T20:42:45.389Z,2.01
2023-02-26T20:45:12.950Z,1.94
2023-02-26T20:47:39.548Z,1.98
2023-02-26T20:50:06.333Z,2.17
2023-02-26T20:52:32.771Z,2.21
2023-02-26T20:54:59.239Z,2.04
2023-02-26T20:57:25.767Z,1.83
2023-02-26T20:59:52.233Z,1.87
2023-02-26T21:02:20.771Z,1.75
2023-02-26T21:04:47.679Z,1.66
2023-02-26T21:07:17.642Z,1.77
2023-02-26T21:09:47.862Z,1.90
2023-02-26T21:12:14.968Z,1.75
2023-02-26T21:14:41.448Z,1.91
2023-02-26T21:17:08.081Z,2.07
2023-02-26T21:19:36.085Z,1.99
2023-02-26T21:22:03.551Z,1.61
2023-02-26T21:24:30.394Z,1.30
2023-02-26T21:26:57.178Z,1.19
2023-02-26T21:29:23.986Z,1.49
2023-02-26T21:31:53.702Z,1.61
2023-02-26T21:34:33.146Z,1.48
2023-02-26T21:37:04.483Z,1.36
2023-02-26T21:39:31.513Z,1.31
2023-02-26T21:42:00.484Z,1.22
2023-02-26T21:44:27.622Z,1.24
2023-02-26T21:46:54.437Z,1.48
2023-02-26T21:49:21.239Z,1.56
2023-02-26T21:51:47.982Z,1.77
2023-02-26T21:54:14.802Z,1.62
2023-02-26T21:56:41.617Z,1.60
2023-02-26T21:59:08.260Z,1.65
2023-02-26T22:01:34.774Z,1.49
2023-02-26T22:04:01.184Z,1.69
2023-02-26T22:06:27.711Z,1.60
2023-02-26T22:08:54.138Z,1.50
2023-02-26T22:11:20.690Z,1.43
2023-02-26T22:13:48.654Z,1.52
2023-02-26T22:16:15.524Z,1.44
2023-02-26T22:18:42.117Z,1.43
2023-02-26T22:21:08.861Z,1.23
2023-02-26T22:23:35.696Z,1.46
2023-02-26T22:26:02.443Z,1.56
2023-02-26T22:28:29.041Z,1.68
2023-02-26T22:30:58.506Z,1.56
2023-02-26T22:33:25.412Z,1.61
2023-02-26T22:35:55.398Z,1.41
2023-02-26T22:38:21.905Z,1.59
2023-02-26T22:40:48.621Z,2.09
2023-02-26T22:43:15.372Z,1.96
2023-02-26T22:45:41.992Z,1.59
2023-02-26T22:48:08.506Z,1.34
2023-02-26T22:50:35.058Z,1.18
2023-02-26T22:53:01.621Z,1.05
2023-02-26T22:55:28.112Z,1.29
2023-02-26T22:57:54.602Z,1.35
2023-02-26T23:00:21.244Z,1.24
2023-02-26T23:02:48.493Z,1.09
2023-02-26T23:05:15.077Z,1.14
2023-02-26T23:07:41.557Z,1.02
2023-02-26T23:10:11.398Z,1.04
2023-02-26T23:12:38.529Z,1.05
2023-02-26T23:15:05.795Z,0.91
2023-02-26T23:17:32.512Z,0.87
2023-02-26T23:19:59.133Z,0.93
2023-02-26T23:22:25.765Z,0.78
2023-02-26T23:24:52.275Z,1.00
2023-02-26T23:27:18.905Z,0.99
2023-02-26T23:29:45.759Z,0.89
2023-02-26T23:32:12.790Z,0.63
2023-02-26T23:34:39.524Z,0.60
2023-02-26T23:37:06.124Z,0.68
2023-02-26T23:39:32.688Z,0.84
2023-02-26T23:41:59.540Z,0.66
2023-02-26T23:44:26.024Z,0.66
2023-02-26T23:46:52.483Z,0.66
2023-02-26T23:49:19.021Z,0.74
2023-02-26T23:51:46.065Z,0.94
2023-02-26T23:54:13.383Z,0.93
2023-02-26T23:56:40.058Z,0.79
2023-02-26T23:59:06.604Z,0.66
